createdAt,value
2022-11-19T00:02:12.767Z,35.77
2022-11-19T00:04:40.786Z,37.57
2022-11-19T00:07:08.804Z,36.07
2022-11-19T00:09:36.881Z,36.00
2022-11-19T00:12:23.834Z,36.57
2022-11-19T00:14:53.417Z,36.97
2022-11-19T00:17:21.394Z,37.33
2022-11-19T00:19:51.595Z,36.13
2022-11-19T00:22:19.550Z,36.77
2022-11-19T00:24:47.619Z,36.53
2022-11-19T00:27:17.001Z,37.83
2022-11-19T00:29:45.076Z,38.07
2022-11-19T00:32:13.208Z,37.20
2022-11-19T00:34:43.739Z,37.67
2022-11-19T00:37:11.677Z,38.50
2022-11-19T00:39:39.701Z,37.63
2022-11-19T00:42:07.670Z,38.20
2022-11-19T00:44:37.604Z,38.00
2022-11-19T00:47:06.011Z,39.87
2022-11-19T00:49:34.026Z,38.37
2022-11-19T00:52:02.268Z,38.53
2022-11-19T00:54:30.335Z,37.10
2022-11-19T00:56:58.358Z,37.83
2022-11-19T00:59:26.486Z,36.17
2022-11-19T01:01:55.950Z,37.33
2022-11-19T01:04:24.018Z,36.30
2022-11-19T01:06:51.985Z,36.63
2022-11-19T01:09:20.673Z,36.87
2022-11-19T01:11:51.889Z,36.37
2022-11-19T01:14:19.879Z,37.60
2022-11-19T01:16:47.847Z,37.43
2022-11-19T01:19:18.649Z,35.80
2022-11-19T01:21:46.779Z,36.30
2022-11-19T01:24:15.159Z,35.83
2022-11-19T01:26:46.000Z,35.90
2022-11-19T01:29:14.534Z,35.80
2022-11-19T01:31:44.530Z,35.83
2022-11-19T01:34:12.494Z,35.80
2022-11-19T01:36:41.746Z,35.67
2022-11-19T01:39:09.737Z,35.80
2022-11-19T01:41:37.708Z,35.90
2022-11-19T01:44:07.574Z,36.13
2022-11-19T01:46:39.760Z,36.50
2022-11-19T01:49:13.664Z,37.80
2022-11-19T01:51:50.130Z,35.90
2022-11-19T01:54:25.596Z,36.53
2022-11-19T01:56:54.236Z,37.27
2022-11-19T01:59:22.619Z,38.50
2022-11-19T02:01:50.925Z,38.87
2022-11-19T02:04:20.623Z,40.23
2022-11-19T02:06:50.037Z,36.83
2022-11-19T02:09:18.459Z,41.17
2022-11-19T02:12:12.924Z,39.90
2022-11-19T02:14:57.178Z,43.10
2022-11-19T02:17:35.917Z,45.07
2022-11-19T02:20:39.097Z,43.37
2022-11-19T02:23:51.934Z,45.37
2022-11-19T02:26:58.915Z,44.77
2022-11-19T02:30:00.319Z,41.23
2022-11-19T02:32:33.942Z,42.80
2022-11-19T02:35:10.338Z,43.60
2022-11-19T02:37:45.426Z,42.57
2022-11-19T02:40:23.917Z,45.13
2022-11-19T02:42:59.192Z,43.20
2022-11-19T02:45:34.940Z,46.70
2022-11-19T02:48:07.628Z,44.23
2022-11-19T02:50:40.723Z,46.03
2022-11-19T02:53:08.669Z,45.30
2022-11-19T02:55:37.582Z,46.87
2022-11-19T02:58:10.450Z,44.53
2022-11-19T03:01:06.239Z,44.80
2022-11-19T03:03:52.329Z,45.10
2022-11-19T03:06:24.372Z,44.03
2022-11-19T03:08:52.261Z,45.30
2022-11-19T03:11:23.694Z,44.57
2022-11-19T03:14:14.038Z,43.33
2022-11-19T03:16:49.127Z,45.13
2022-11-19T03:19:35.240Z,46.80
2022-11-19T03:22:09.243Z,44.73
2022-11-19T03:24:41.542Z,43.57
2022-11-19T03:27:12.558Z,45.43
2022-11-19T03:29:44.958Z,43.87
2022-11-19T03:32:18.431Z,43.57
2022-11-19T03:34:49.963Z,42.93
2022-11-19T03:37:20.078Z,43.53
2022-11-19T03:39:49.118Z,45.57
2022-11-19T03:42:19.896Z,41.60
2022-11-19T03:44:51.165Z,44.93
2022-11-19T03:47:26.027Z,48.07
2022-11-19T03:50:00.101Z,48.17
2022-11-19T03:52:28.315Z,47.20
2022-11-19T03:54:56.190Z,46.27
2022-11-19T03:57:26.328Z,47.70
2022-11-19T03:59:54.331Z,48.10
2022-11-19T04:02:24.395Z,47.27
2022-11-19T04:04:52.311Z,48.00
2022-11-19T04:07:22.961Z,49.17
2022-11-19T04:09:51.501Z,48.03
2022-11-19T04:12:20.861Z,49.67
2022-11-19T04:14:49.668Z,49.13
2022-11-19T04:17:18.071Z,48.97
2022-11-19T04:19:47.499Z,50.33
2022-11-19T04:22:15.435Z,50.57
2022-11-19T04:24:43.758Z,45.63
2022-11-19T04:27:11.789Z,50.57
2022-11-19T04:29:39.750Z,48.70
2022-11-19T04:32:07.719Z,50.93
2022-11-19T04:34:35.702Z,52.00
2022-11-19T04:37:05.943Z,50.03
2022-11-19T04:39:33.954Z,49.53
2022-11-19T04:42:01.945Z,50.73
2022-11-19T04:44:30.046Z,52.67
2022-11-19T04:46:58.149Z,52.83
2022-11-19T04:49:26.159Z,53.33
2022-11-19T04:51:54.394Z,50.43
2022-11-19T04:54:23.954Z,48.57
2022-11-19T04:56:51.936Z,46.90
2022-11-19T04:59:20.300Z,53.13
2022-11-19T05:01:49.379Z,52.70
2022-11-19T05:04:17.371Z,53.07
2022-11-19T05:06:45.245Z,52.53
2022-11-19T05:09:13.264Z,52.73
2022-11-19T05:11:42.886Z,51.83
2022-11-19T05:14:10.897Z,54.33
2022-11-19T05:16:38.929Z,53.47
2022-11-19T05:19:07.098Z,53.20
2022-11-19T05:21:35.034Z,53.07
2022-11-19T05:24:02.960Z,55.07
2022-11-19T05:26:30.833Z,56.07
2022-11-19T05:29:00.101Z,55.27
2022-11-19T05:31:28.047Z,58.93
2022-11-19T05:33:56.002Z,56.07
2022-11-19T05:36:23.922Z,57.90
2022-11-19T05:38:51.904Z,54.30
2022-11-19T05:41:19.960Z,58.10
2022-11-19T05:43:47.896Z,58.77
2022-11-19T05:46:17.142Z,57.93
2022-11-19T05:48:45.074Z,61.20
2022-11-19T05:51:15.205Z,58.87
2022-11-19T05:53:43.989Z,55.80
2022-11-19T05:56:12.098Z,52.63
2022-11-19T05:58:40.092Z,57.10
2022-11-19T06:01:08.041Z,57.57
2022-11-19T06:03:37.480Z,59.03
2022-11-19T06:06:05.889Z,52.67
2022-11-19T06:08:33.793Z,57.07
2022-11-19T06:11:03.281Z,53.47
2022-11-19T06:13:31.295Z,55.37
2022-11-19T06:15:59.181Z,53.63
2022-11-19T06:18:27.160Z,54.80
2022-11-19T06:20:56.499Z,53.63
2022-11-19T06:23:24.443Z,55.63
2022-11-19T06:25:55.360Z,51.17
2022-11-19T06:28:23.400Z,50.67
2022-11-19T06:30:51.452Z,53.13
2022-11-19T06:33:19.288Z,53.03
2022-11-19T06:35:47.130Z,53.17
2022-11-19T06:38:16.547Z,52.07
2022-11-19T06:40:46.296Z,51.60
2022-11-19T06:43:14.214Z,50.83
2022-11-19T06:45:42.578Z,50.93
2022-11-19T06:48:10.573Z,50.70
2022-11-19T06:50:38.461Z,51.40
2022-11-19T06:53:06.459Z,49.00
2022-11-19T06:55:35.896Z,51.13
2022-11-19T06:58:04.931Z,52.80
2022-11-19T07:00:33.244Z,51.23
2022-11-19T07:03:01.403Z,53.13
2022-11-19T07:05:29.353Z,52.03
2022-11-19T07:08:02.612Z,54.80
2022-11-19T07:10:31.746Z,46.30
2022-11-19T07:13:01.215Z,43.70
2022-11-19T07:15:33.408Z,41.50
2022-11-19T07:18:02.435Z,42.83
2022-11-19T07:20:30.417Z,43.93
2022-11-19T07:23:01.336Z,44.63
2022-11-19T07:25:29.905Z,44.50
2022-11-19T07:27:57.842Z,45.47
2022-11-19T07:30:27.131Z,44.33
2022-11-19T07:32:55.592Z,44.23
2022-11-19T07:35:23.561Z,43.03
2022-11-19T07:37:51.451Z,44.53
2022-11-19T07:40:19.481Z,42.93
2022-11-19T07:42:53.292Z,43.90
2022-11-19T07:45:22.973Z,44.67
2022-11-19T07:47:52.353Z,43.33
2022-11-19T07:50:21.356Z,43.90
2022-11-19T07:52:49.335Z,43.37
2022-11-19T07:55:17.359Z,42.70
2022-11-19T07:57:45.308Z,42.50
2022-11-19T08:00:14.607Z,42.63
2022-11-19T08:02:42.713Z,42.97
2022-11-19T08:05:12.715Z,42.80
2022-11-19T08:07:40.929Z,41.30
2022-11-19T08:10:10.519Z,42.40
2022-11-19T08:12:38.525Z,41.90
2022-11-19T08:15:07.223Z,42.87
2022-11-19T08:17:52.678Z,41.77
2022-11-19T08:20:22.132Z,43.13
2022-11-19T08:22:50.167Z,42.83
2022-11-19T08:25:18.716Z,40.67
2022-11-19T08:27:47.211Z,42.93
2022-11-19T08:30:15.830Z,40.07
2022-11-19T08:32:43.815Z,43.13
2022-11-19T08:35:11.835Z,43.70
2022-11-19T08:37:44.082Z,43.33
2022-11-19T08:40:12.585Z,42.60
2022-11-19T08:42:58.243Z,43.63
2022-11-19T08:45:26.938Z,42.43
2022-11-19T08:47:55.509Z,42.87
2022-11-19T08:50:24.425Z,43.47
2022-11-19T08:52:57.873Z,42.90
2022-11-19T08:55:27.950Z,42.93
2022-11-19T08:58:01.667Z,41.27
2022-11-19T09:00:30.032Z,42.07
2022-11-19T09:02:58.380Z,40.47
2022-11-19T09:05:26.440Z,40.07
2022-11-19T09:07:57.525Z,40.67
2022-11-19T09:10:25.456Z,42.73
2022-11-19T09:12:53.609Z,40.33
2022-11-19T09:15:22.218Z,41.67
2022-11-19T09:17:50.207Z,41.03
2022-11-19T09:20:18.372Z,41.67
2022-11-19T09:22:46.402Z,38.83
2022-11-19T09:25:15.949Z,41.03
2022-11-19T09:27:47.005Z,38.60
2022-11-19T09:30:15.616Z,38.57
2022-11-19T09:32:46.360Z,38.47
2022-11-19T09:35:14.357Z,38.17
2022-11-19T09:37:42.708Z,39.07
2022-11-19T09:40:17.078Z,38.23
2022-11-19T09:42:54.372Z,38.63
2022-11-19T09:45:32.268Z,38.13
2022-11-19T09:48:15.141Z,40.07
2022-11-19T09:50:53.532Z,39.30
2022-11-19T09:53:23.595Z,40.13
2022-11-19T09:55:54.944Z,39.17
2022-11-19T09:58:31.886Z,39.57
2022-11-19T10:01:00.303Z,39.83
2022-11-19T10:03:33.383Z,38.37
2022-11-19T10:06:20.934Z,37.97
2022-11-19T10:09:13.423Z,38.27
2022-11-19T10:11:51.806Z,39.80
2022-11-19T10:14:43.205Z,41.10
2022-11-19T10:17:28.529Z,39.83
2022-11-19T10:20:09.589Z,40.90
2022-11-19T10:22:40.801Z,39.33
2022-11-19T10:25:18.068Z,36.77
2022-11-19T10:27:50.113Z,39.33
2022-11-19T10:30:21.642Z,41.40
2022-11-19T10:32:58.447Z,38.77
2022-11-19T10:35:30.901Z,37.93
2022-11-19T10:38:02.288Z,37.33
2022-11-19T10:40:37.933Z,38.03
2022-11-19T10:43:21.989Z,38.30
2022-11-19T10:45:52.774Z,38.00
2022-11-19T10:48:23.676Z,37.67
2022-11-19T10:50:52.301Z,39.70
2022-11-19T10:53:22.778Z,39.53
2022-11-19T10:55:54.848Z,37.70
2022-11-19T10:58:26.228Z,40.30
2022-11-19T11:00:56.862Z,39.80
2022-11-19T11:03:35.199Z,40.43
2022-11-19T11:06:06.535Z,40.37
2022-11-19T11:08:35.043Z,41.43
2022-11-19T11:11:03.130Z,39.43
2022-11-19T11:13:59.151Z,38.17
2022-11-19T11:16:47.028Z,40.07
2022-11-19T11:19:18.980Z,38.73
2022-11-19T11:21:48.285Z,39.57
2022-11-19T11:24:17.050Z,38.53
2022-11-19T11:26:45.212Z,40.00
2022-11-19T11:29:27.583Z,40.00
2022-11-19T11:31:56.993Z,38.23
2022-11-19T11:34:33.564Z,39.63
2022-11-19T11:37:04.033Z,39.40
2022-11-19T11:39:34.732Z,38.37
2022-11-19T11:42:06.341Z,40.33
2022-11-19T11:44:36.869Z,40.27
2022-11-19T11:47:13.507Z,38.73
2022-11-19T11:49:44.393Z,37.03
2022-11-19T11:52:19.917Z,38.17
2022-11-19T11:55:07.129Z,37.10
2022-11-19T11:57:36.587Z,38.13
2022-11-19T12:00:29.486Z,34.53
2022-11-19T12:03:03.666Z,35.37
2022-11-19T12:05:46.286Z,34.67
2022-11-19T12:08:29.012Z,31.77
2022-11-19T12:11:02.743Z,31.80
2022-11-19T12:13:59.995Z,33.63
2022-11-19T12:16:43.082Z,33.93
2022-11-19T12:19:28.631Z,30.27
2022-11-19T12:22:06.105Z,31.83
2022-11-19T12:24:49.340Z,32.83
2022-11-19T12:27:25.980Z,27.20
2022-11-19T12:30:02.594Z,31.47
2022-11-19T12:32:51.852Z,32.57
2022-11-19T12:35:36.160Z,28.47
2022-11-19T12:38:19.990Z,29.03
2022-11-19T12:40:59.203Z,27.73
2022-11-19T12:43:45.934Z,30.60
2022-11-19T12:46:21.511Z,31.60
2022-11-19T12:49:03.049Z,31.77
2022-11-19T12:51:42.684Z,30.93
2022-11-19T12:54:30.284Z,32.93
2022-11-19T12:57:16.387Z,32.83
2022-11-19T12:59:56.626Z,32.70
2022-11-19T13:02:28.037Z,30.17
2022-11-19T13:05:02.054Z,30.93
2022-11-19T13:07:37.973Z,32.30
2022-11-19T13:10:15.115Z,30.50
2022-11-19T13:12:47.538Z,31.77
2022-11-19T13:15:20.671Z,30.10
2022-11-19T13:17:51.917Z,28.97
2022-11-19T13:20:26.174Z,33.17
2022-11-19T13:22:59.591Z,33.27
2022-11-19T13:25:31.839Z,32.80
2022-11-19T13:28:03.086Z,33.60
2022-11-19T13:30:33.615Z,31.60
2022-11-19T13:33:12.480Z,30.00
2022-11-19T13:35:46.968Z,31.70
2022-11-19T13:38:24.640Z,29.53
2022-11-19T13:40:56.282Z,32.77
2022-11-19T13:43:41.618Z,34.17
2022-11-19T13:46:21.005Z,30.30
2022-11-19T13:48:56.602Z,29.50
2022-11-19T13:51:32.075Z,29.33
2022-11-19T13:54:04.165Z,28.03
2022-11-19T13:56:44.998Z,26.93
2022-11-19T13:59:31.031Z,25.23
2022-11-19T14:02:16.844Z,26.67
2022-11-19T14:05:08.642Z,21.33
2022-11-19T14:07:57.456Z,21.10
2022-11-19T14:10:32.844Z,19.43
2022-11-19T14:13:19.818Z,19.43
2022-11-19T14:16:25.303Z,19.33
2022-11-19T14:19:13.167Z,17.83
2022-11-19T14:22:09.537Z,17.37
2022-11-19T14:25:14.261Z,19.27
2022-11-19T14:27:44.651Z,20.50
2022-11-19T14:30:14.934Z,17.40
2022-11-19T14:32:47.442Z,17.87
2022-11-19T14:35:40.197Z,17.37
2022-11-19T14:38:39.039Z,17.23
2022-11-19T14:41:32.377Z,17.03
2022-11-19T14:44:10.482Z,15.80
2022-11-19T14:46:49.396Z,13.33
2022-11-19T14:49:33.067Z,13.70
2022-11-19T14:52:01.388Z,13.53
2022-11-19T14:54:33.817Z,14.17
2022-11-19T14:57:16.101Z,14.80
2022-11-19T14:59:51.551Z,12.37
2022-11-19T15:02:27.054Z,12.13
2022-11-19T15:05:00.550Z,13.23
2022-11-19T15:07:42.605Z,13.10
2022-11-19T15:10:30.431Z,13.63
2022-11-19T15:13:26.402Z,13.20
2022-11-19T15:16:04.006Z,13.23
2022-11-19T15:19:09.810Z,13.33
2022-11-19T15:22:06.726Z,12.97
2022-11-19T15:24:53.101Z,10.70
2022-11-19T15:27:34.555Z,13.10
2022-11-19T15:30:10.394Z,14.10
2022-11-19T15:33:16.644Z,12.70
2022-11-19T15:36:14.152Z,12.80
2022-11-19T15:38:46.291Z,13.93
2022-11-19T15:41:16.978Z,11.23
2022-11-19T15:43:49.574Z,10.63
2022-11-19T15:46:26.025Z,12.77
2022-11-19T15:49:06.129Z,11.70
2022-11-19T15:51:57.922Z,13.93
2022-11-19T15:54:29.671Z,10.67
2022-11-19T15:57:01.037Z,11.13
2022-11-19T15:59:30.127Z,11.07
2022-11-19T16:02:01.149Z,9.67
2022-11-19T16:04:37.557Z,10.43
2022-11-19T16:07:08.113Z,12.07
2022-11-19T16:09:36.753Z,11.17
2022-11-19T16:12:22.777Z,12.33
2022-11-19T16:15:09.395Z,12.83
2022-11-19T16:17:43.913Z,12.60
2022-11-19T16:20:22.259Z,9.50
2022-11-19T16:22:56.602Z,14.23
2022-11-19T16:25:31.501Z,12.70
2022-11-19T16:28:01.480Z,13.00
2022-11-19T16:30:31.037Z,15.80
2022-11-19T16:33:00.136Z,15.33
2022-11-19T16:35:32.547Z,17.67
2022-11-19T16:38:02.544Z,17.97
2022-11-19T16:40:53.213Z,17.83
2022-11-19T16:43:20.886Z,28.87
2022-11-19T16:45:49.941Z,15.53
2022-11-19T16:48:54.988Z,13.47
2022-11-19T16:51:33.578Z,14.67
2022-11-19T16:54:02.225Z,17.33
2022-11-19T16:56:35.710Z,13.73
2022-11-19T16:59:05.313Z,14.43
2022-11-19T17:01:34.277Z,12.33
2022-11-19T17:04:06.956Z,14.90
2022-11-19T17:06:38.421Z,12.90
2022-11-19T17:09:07.752Z,14.93
2022-11-19T17:12:10.334Z,15.13
2022-11-19T17:14:56.987Z,13.60
2022-11-19T17:17:40.452Z,13.53
2022-11-19T17:21:00.025Z,12.93
2022-11-19T17:23:31.341Z,14.43
2022-11-19T17:26:00.937Z,15.77
2022-11-19T17:28:35.979Z,13.37
2022-11-19T17:31:07.437Z,17.37
2022-11-19T17:33:52.215Z,18.10
2022-11-19T17:36:22.039Z,15.97
2022-11-19T17:38:51.571Z,14.30
2022-11-19T17:41:42.761Z,12.40
2022-11-19T17:44:31.565Z,13.43
2022-11-19T17:47:00.288Z,11.80
2022-11-19T17:49:28.369Z,14.20
2022-11-19T17:51:56.381Z,13.03
2022-11-19T17:54:25.711Z,16.57
2022-11-19T17:56:53.607Z,14.53
2022-11-19T17:59:21.385Z,20.67
2022-11-19T18:01:49.626Z,20.77
2022-11-19T18:04:18.208Z,10.67
2022-11-19T18:06:47.289Z,10.53
2022-11-19T18:09:15.378Z,12.73
2022-11-19T18:11:44.954Z,13.87
2022-11-19T18:14:13.211Z,12.40
2022-11-19T18:16:43.665Z,14.17
2022-11-19T18:19:23.665Z,17.77
2022-11-19T18:21:52.407Z,25.50
2022-11-19T18:24:20.620Z,26.77
2022-11-19T18:26:49.993Z,33.40
2022-11-19T18:29:18.116Z,28.37
2022-11-19T18:31:48.212Z,23.97
2022-11-19T18:34:18.973Z,34.20
2022-11-19T18:36:47.010Z,34.37
2022-11-19T18:39:14.992Z,40.90
2022-11-19T18:41:43.231Z,24.60
2022-11-19T18:44:33.006Z,18.00
2022-11-19T18:47:04.513Z,18.37
2022-11-19T18:49:33.491Z,19.23
2022-11-19T18:52:02.054Z,23.40
2022-11-19T18:54:30.044Z,26.70
2022-11-19T18:57:00.318Z,22.17
2022-11-19T18:59:30.451Z,26.10
2022-11-19T19:01:58.600Z,42.97
2022-11-19T19:04:26.784Z,25.43
2022-11-19T19:06:55.061Z,23.43
2022-11-19T19:09:23.171Z,49.37
2022-11-19T19:12:13.551Z,28.17
2022-11-19T19:14:44.291Z,28.63
2022-11-19T19:17:12.857Z,26.87
2022-11-19T19:19:41.512Z,35.40
2022-11-19T19:22:09.888Z,31.37
2022-11-19T19:24:38.093Z,22.87
2022-11-19T19:27:06.476Z,23.40
2022-11-19T19:29:34.443Z,27.67
2022-11-19T19:32:04.130Z,25.47
2022-11-19T19:34:32.084Z,24.83
2022-11-19T19:37:00.089Z,29.97
2022-11-19T19:39:28.051Z,22.40
2022-11-19T19:41:55.943Z,19.57
2022-11-19T19:44:23.843Z,17.97
2022-11-19T19:46:52.608Z,17.63
2022-11-19T19:49:22.378Z,17.10
2022-11-19T19:51:50.916Z,16.40
2022-11-19T19:54:18.957Z,17.23
2022-11-19T19:56:47.093Z,16.37
2022-11-19T19:59:15.965Z,16.33
2022-11-19T20:01:47.443Z,14.90
2022-11-19T20:04:15.506Z,18.67
2022-11-19T20:06:48.032Z,19.23
2022-11-19T20:09:16.115Z,18.40
2022-11-19T20:11:47.169Z,15.90
2022-11-19T20:14:15.243Z,18.80
2022-11-19T20:16:43.689Z,17.37
2022-11-19T20:19:14.978Z,18.40
2022-11-19T20:21:43.480Z,16.57
2022-11-19T20:24:13.711Z,19.47
2022-11-19T20:26:43.156Z,17.23
2022-11-19T20:29:13.091Z,17.67
2022-11-19T20:31:41.797Z,17.43
2022-11-19T20:34:12.913Z,20.57
2022-11-19T20:36:41.601Z,15.70
2022-11-19T20:39:09.515Z,19.03
2022-11-19T20:41:56.183Z,16.67
2022-11-19T20:44:24.187Z,17.80
2022-11-19T20:46:54.197Z,17.23
2022-11-19T20:49:24.395Z,18.90
2022-11-19T20:51:53.058Z,18.47
2022-11-19T20:54:21.685Z,17.17
2022-11-19T20:56:52.164Z,17.13
2022-11-19T20:59:20.779Z,19.23
2022-11-19T21:01:49.623Z,18.63
2022-11-19T21:04:18.365Z,19.13
2022-11-19T21:06:46.569Z,17.43
2022-11-19T21:09:15.744Z,18.07
2022-11-19T21:11:44.156Z,15.20
2022-11-19T21:14:14.005Z,14.20
2022-11-19T21:16:41.955Z,17.70
2022-11-19T21:19:10.891Z,16.43
2022-11-19T21:21:46.419Z,18.67
2022-11-19T21:24:15.513Z,16.37
2022-11-19T21:26:43.866Z,17.30
2022-11-19T21:29:13.986Z,18.00
2022-11-19T21:31:45.295Z,17.77
2022-11-19T21:34:14.856Z,18.23
2022-11-19T21:36:47.018Z,15.97
2022-11-19T21:39:16.408Z,17.90
2022-11-19T21:41:45.481Z,17.13
2022-11-19T21:44:20.794Z,18.73
2022-11-19T21:46:49.514Z,18.77
2022-11-19T21:49:17.413Z,17.87
2022-11-19T21:51:45.486Z,19.27
2022-11-19T21:54:13.422Z,18.63
2022-11-19T21:56:41.611Z,17.30
2022-11-19T21:59:09.490Z,20.80
2022-11-19T22:01:38.733Z,18.40
2022-11-19T22:04:07.024Z,17.20
2022-11-19T22:06:35.109Z,20.40
2022-11-19T22:09:03.088Z,21.03
2022-11-19T22:11:31.498Z,25.57
2022-11-19T22:14:02.027Z,28.03
2022-11-19T22:16:30.955Z,26.87
2022-11-19T22:19:00.239Z,26.57
2022-11-19T22:21:30.037Z,23.53
2022-11-19T22:23:58.254Z,22.17
2022-11-19T22:26:26.915Z,21.00
2022-11-19T22:28:55.316Z,18.23
2022-11-19T22:31:23.554Z,20.00
2022-11-19T22:33:52.343Z,19.53
2022-11-19T22:36:23.111Z,21.57
2022-11-19T22:38:52.213Z,19.83
2022-11-19T22:41:21.936Z,21.90
2022-11-19T22:43:50.361Z,20.07
2022-11-19T22:46:19.427Z,20.17
2022-11-19T22:48:47.675Z,21.30
2022-11-19T22:51:17.569Z,22.37
2022-11-19T22:53:47.347Z,21.67
2022-11-19T22:56:17.353Z,22.50
2022-11-19T22:58:45.549Z,21.30
2022-11-19T23:01:17.597Z,22.97
2022-11-19T23:03:46.240Z,23.73
2022-11-19T23:06:14.145Z,27.00
2022-11-19T23:08:45.102Z,25.73
2022-11-19T23:11:15.697Z,25.27
2022-11-19T23:13:44.500Z,23.70
2022-11-19T23:16:14.834Z,24.37
2022-11-19T23:18:47.773Z,26.03
2022-11-19T23:21:18.419Z,27.03
2022-11-19T23:23:46.539Z,30.33
2022-11-19T23:26:18.466Z,24.83
2022-11-19T23:28:46.624Z,24.00
2022-11-19T23:31:17.165Z,24.27
2022-11-19T23:33:45.760Z,27.13
2022-11-19T23:36:15.250Z,26.37
2022-11-19T23:38:43.935Z,25.53
2022-11-19T23:41:14.187Z,25.73
2022-11-19T23:43:44.275Z,26.40
2022-11-19T23:46:14.246Z,26.80
2022-11-19T23:48:43.699Z,27.90
2022-11-19T23:51:13.843Z,30.63
2022-11-19T23:53:42.661Z,31.80
2022-11-19T23:56:11.759Z,31.83
2022-11-19T23:58:40.215Z,30.20
